Time;durP1;ratioP1;P1;durP2;ratioP2;P2;SDS_P1;SDS_P2;PMS_P1;PMS_P2;Temp;Humidity;BMP_temperature;BMP_pressure;BME280_temperature;BME280_humidity;BME280_pressure;Samples;Min_cycle;Max_cycle;Signal;HPM_P1;HPM_P2
2022/10/20 00:01:27;;;;;;;;;;;;;;;24.31;46.08;94483.91;5049638;28;7256;-60
2022/10/20 00:04:03;;;;;;;;;;;;;;;24.29;46.01;94472.66;5032901;28;7271;-60
2022/10/20 00:06:39;;;;;;;;;;;;;;;24.31;45.83;94489.41;5033123;28;7201;-60
2022/10/20 00:09:05;;;;;;;;;;;;;;;24.30;46.24;94478.91;5048956;28;7268;-59
2022/10/20 00:11:33;;;;;;;;;;;;;;;24.29;45.92;94480.91;5029394;28;7228;-60
2022/10/20 00:14:15;;;;;;;;;;;;;;;24.27;46.07;94475.13;5030350;28;8437;-60
2022/10/20 00:16:41;;;;;;;;;;;;;;;24.27;46.68;94472.38;5033372;28;7209;-60
2022/10/20 00:19:10;;;;;;;;;;;;;;;24.27;46.05;94477.88;5032820;28;7189;-60
2022/10/20 00:21:36;;;;;;;;;;;;;;;24.27;46.39;94477.88;5040194;28;7166;-60
2022/10/20 00:24:02;;;;;;;;;;;;;;;24.28;46.15;94476.66;5012799;28;7843;-60
2022/10/20 00:26:37;;;;;;;;;;;;;;;24.26;46.17;94465.41;5042383;28;9229;-60
2022/10/20 00:29:12;;;;;;;;;;;;;;;24.27;45.68;94464.16;5028500;28;7238;-60
2022/10/20 00:31:59;;;;;;;;;;;;;;;24.25;46.47;94466.66;5034431;28;8970;-59
2022/10/20 00:34:40;;;;;;;;;;;;;;;24.25;46.11;94466.66;5032339;28;7610;-60
2022/10/20 00:37:13;;;;;;;;;;;;;;;24.27;45.82;94466.16;5036924;28;7350;-60
2022/10/20 00:39:39;;;;;;;;;;;;;;;24.25;46.34;94461.16;5071474;28;7222;-60
2022/10/20 00:42:15;;;;;;;;;;;;;;;24.25;46.17;94466.66;5071444;28;7258;-60
2022/10/20 00:44:55;;;;;;;;;;;;;;;24.27;45.83;94455.91;5067155;28;7555;-60
2022/10/20 00:47:42;;;;;;;;;;;;;;;24.26;46.34;94454.41;5055097;28;9155;-60
2022/10/20 00:50:18;;;;;;;;;;;;;;;24.25;46.33;94449.44;5069663;28;6986;-60
2022/10/20 00:52:47;;;;;;;;;;;;;;;24.24;46.16;94445.94;5071167;28;7407;-60
2022/10/20 00:55:34;;;;;;;;;;;;;;;24.25;45.75;94446.69;5074079;28;7203;-60
2022/10/20 00:58:06;;;;;;;;;;;;;;;24.23;46.54;94449.19;5054734;28;7114;-60
2022/10/20 01:00:43;;;;;;;;;;;;;;;24.23;46.05;94441.66;5063534;28;6924;-60
2022/10/20 01:03:25;;;;;;;;;;;;;;;24.26;45.77;94448.16;5075637;28;7040;-60
2022/10/20 01:05:51;;;;;;;;;;;;;;;24.26;46.05;94443.41;5060862;28;8525;-60
2022/10/20 01:08:16;;;;;;;;;;;;;;;24.25;46.48;94441.19;5066463;28;7411;-60
2022/10/20 01:11:05;;;;;;;;;;;;;;;24.25;45.86;94444.66;5053108;28;8059;-60
2022/10/20 01:13:50;;;;;;;;;;;;;;;24.25;45.78;94446.69;5064318;28;7058;-59
2022/10/20 01:16:27;;;;;;;;;;;;;;;;;;5065502;28;7036;-60
2022/10/20 01:18:53;;;;;;;;;;;;;;;;;;5056982;28;7179;-60
2022/10/20 01:21:41;;;;;;;;;;;;;;;24.22;46.22;94440.19;5055930;28;7260;-59
2022/10/20 01:24:08;;;;;;;;;;;;;;;;;;5071269;28;7254;-59
2022/10/20 01:26:43;;;;;;;;;;;;;;;24.23;45.88;94427.19;5043510;28;9449;-59
2022/10/20 01:29:15;;;;;;;;;;;;;;;24.23;45.87;94430.66;5071076;28;7116;-59
2022/10/20 01:31:44;;;;;;;;;;;;;;;24.23;45.75;94427.91;5062082;28;7358;-59
2022/10/20 01:34:27;;;;;;;;;;;;;;;24.22;45.69;94429.19;5070545;28;10231;-59
2022/10/20 01:37:16;;;;;;;;;;;;;;;24.23;45.69;94416.19;5066780;28;8244;-60
2022/10/20 01:40:19;;;;;;;;;;;;;;;24.22;46.11;94409.94;5070670;28;9381;-60
2022/10/20 01:42:56;;;;;;;;;;;;;;;24.20;45.99;94404.19;5057167;28;7173;-60
2022/10/20 01:45:38;;;;;;;;;;;;;;;24.16;46.73;94400.97;5046452;28;9314;-59
2022/10/20 01:48:11;;;;;;;;;;;;;;;24.15;46.04;94404.19;5062652;28;7588;-59
2022/10/20 01:50:40;;;;;;;;;;;;;;;24.14;46.09;94400.69;5042642;28;6970;-59
2022/10/20 01:53:06;;;;;;;;;;;;;;;24.15;46.51;94395.94;5052874;28;8341;-59
2022/10/20 01:55:37;;;;;;;;;;;;;;;24.16;46.33;94395.47;5069960;28;7340;-60
2022/10/20 01:58:21;;;;;;;;;;;;;;;24.20;46.55;94403.44;5065043;28;7080;-59
2022/10/20 02:01:02;;;;;;;;;;;;;;;24.20;45.87;94395.22;5036210;28;7262;-59
2022/10/20 02:03:50;;;;;;;;;;;;;;;24.18;46.61;94392.22;5069306;28;7480;-59
2022/10/20 02:06:29;;;;;;;;;;;;;;;24.18;46.13;94373.72;5046240;28;7293;-60
2022/10/20 02:09:21;;;;;;;;;;;;;;;24.19;46.43;94383.47;5077487;28;7194;-59
2022/10/20 02:11:53;;;;;;;;;;;;;;;24.17;45.81;94385.97;5059382;28;8986;-59
2022/10/20 02:14:22;;;;;;;;;;;;;;;24.18;45.73;94392.97;5056561;28;9056;-59
2022/10/20 02:16:58;;;;;;;;;;;;;;;24.20;46.42;94395.97;5075961;28;8197;-61
2022/10/20 02:19:32;;;;;;;;;;;;;;;24.15;46.00;94371.22;5042702;28;7584;-60
2022/10/20 02:22:03;;;;;;;;;;;;;;;24.12;46.16;94370.22;5033889;28;7138;-61
2022/10/20 02:24:37;;;;;;;;;;;;;;;24.14;45.82;94373.22;5054779;28;7259;-60
2022/10/20 02:27:19;;;;;;;;;;;;;;;24.17;46.25;94380.47;5068972;28;9022;-60
2022/10/20 02:30:06;;;;;;;;;;;;;;;24.17;46.51;94380.47;5068748;28;7256;-60
2022/10/20 02:32:38;;;;;;;;;;;;;;;24.18;45.80;94381.97;5055593;28;7491;-60
2022/10/20 02:35:11;;;;;;;;;;;;;;;24.17;46.36;94380.47;5055618;28;9037;-60
2022/10/20 02:37:49;;;;;;;;;;;;;;;24.16;46.40;94378.97;5060797;28;7456;-61
2022/10/20 02:40:22;;;;;;;;;;;;;;;24.16;46.26;94384.47;5063071;28;7560;-60
2022/10/20 02:42:49;;;;;;;;;;;;;;;24.17;46.09;94365.97;5054899;28;7001;-60
2022/10/20 02:45:15;;;;;;;;;;;;;;;24.15;45.93;94363.72;5061283;28;9327;-60
2022/10/20 02:47:52;;;;;;;;;;;;;;;24.16;46.34;94376.22;5061593;28;8373;-60
2022/10/20 02:50:20;;;;;;;;;;;;;;;24.16;45.64;94375.47;5061891;28;9113;-60
2022/10/20 02:52:46;;;;;;;;;;;;;;;24.15;46.51;94371.97;5071258;28;6983;-60
2022/10/20 02:55:14;;;;;;;;;;;;;;;24.12;46.24;94366.75;5046251;28;7274;-60
2022/10/20 02:57:42;;;;;;;;;;;;;;;24.12;45.94;94367.47;5061575;28;7368;-60
2022/10/20 03:00:11;;;;;;;;;;;;;;;24.13;46.09;94382.72;5067746;28;7219;-60
2022/10/20 03:02:38;;;;;;;;;;;;;;;24.14;46.03;94372.47;5062006;28;6999;-60
2022/10/20 03:05:10;;;;;;;;;;;;;;;24.14;46.33;94370.47;5068544;28;7236;-60
2022/10/20 03:07:45;;;;;;;;;;;;;;;24.12;46.45;94378.47;5052118;28;7122;-61
2022/10/20 03:10:24;;;;;;;;;;;;;;;24.13;46.00;94392.97;5068846;28;7259;-61
2022/10/20 03:12:57;;;;;;;;;;;;;;;24.15;46.58;94407.69;5059038;28;7252;-60
2022/10/20 03:15:22;;;;;;;;;;;;;;;24.15;45.89;94399.47;5068465;28;8883;-60
2022/10/20 03:17:51;;;;;;;;;;;;;;;24.15;46.31;94406.94;5061589;28;6964;-60
2022/10/20 03:20:17;;;;;;;;;;;;;;;24.14;46.36;94397.94;5052463;28;7351;-60
2022/10/20 03:22:44;;;;;;;;;;;;;;;24.13;46.17;94390.97;5051855;28;7391;-60
2022/10/20 03:25:10;;;;;;;;;;;;;;;24.14;46.25;94392.44;5065605;28;7449;-60
2022/10/20 03:27:44;;;;;;;;;;;;;;;24.13;46.63;94396.47;5070382;28;7227;-61
2022/10/20 03:30:11;;;;;;;;;;;;;;;24.12;45.85;94397.69;5060339;28;9447;-60
2022/10/20 03:32:40;;;;;;;;;;;;;;;24.11;46.67;94393.47;5054323;28;7320;-60
2022/10/20 03:35:17;;;;;;;;;;;;;;;24.11;45.95;94387.97;5060042;28;7125;-60
2022/10/20 03:37:48;;;;;;;;;;;;;;;24.12;45.94;94394.94;5065283;28;7208;-60
2022/10/20 03:40:22;;;;;;;;;;;;;;;24.13;46.02;94392.97;5071906;28;7068;-60
2022/10/20 03:42:50;;;;;;;;;;;;;;;24.11;46.37;94390.72;5051846;28;7344;-61
2022/10/20 03:45:25;;;;;;;;;;;;;;;24.12;46.34;94391.47;5063799;28;9061;-61
2022/10/20 03:47:57;;;;;;;;;;;;;;;24.10;45.96;94380.22;5059211;28;7442;-60
2022/10/20 03:50:24;;;;;;;;;;;;;;;24.09;46.11;94389.72;5061671;28;7345;-60
2022/10/20 03:52:56;;;;;;;;;;;;;;;24.10;46.54;94383.72;5061876;28;7288;-60
2022/10/20 03:55:32;;;;;;;;;;;;;;;24.10;45.76;94369.97;5063391;28;7439;-60
2022/10/20 03:57:58;;;;;;;;;;;;;;;24.10;46.30;94367.22;5069566;28;9503;-60
2022/10/20 04:00:25;;;;;;;;;;;;;;;24.09;46.47;94373.22;5064050;28;6991;-60
2022/10/20 04:02:59;;;;;;;;;;;;;;;24.09;46.53;94382.22;5049942;28;7017;-61
2022/10/20 04:05:24;;;;;;;;;;;;;;;24.07;46.14;94384.72;5056444;28;6965;-60
2022/10/20 04:07:52;;;;;;;;;;;;;;;24.07;45.93;94378.47;5049141;28;7964;-60
2022/10/20 04:10:19;;;;;;;;;;;;;;;24.04;46.44;94376.69;5070559;28;7372;-60
2022/10/20 04:12:47;;;;;;;;;;;;;;;24.05;45.72;94376.25;5070824;28;7166;-60
2022/10/20 04:15:17;;;;;;;;;;;;;;;24.04;46.15;94371.94;5086568;28;7926;-61
2022/10/20 04:17:43;;;;;;;;;;;;;;;24.06;45.74;94363.22;5068883;28;9030;-60
2022/10/20 04:20:10;;;;;;;;;;;;;;;24.06;46.20;94346.75;5069340;28;6997;-60
2022/10/20 04:22:37;;;;;;;;;;;;;;;24.06;46.00;94330.25;5070192;28;8988;-60
2022/10/20 04:25:04;;;;;;;;;;;;;;;24.05;46.83;94335.03;5076326;28;9076;-60
2022/10/20 04:27:32;;;;;;;;;;;;;;;24.04;46.30;94347.22;5052516;28;9221;-61
2022/10/20 04:30:01;;;;;;;;;;;;;;;24.01;46.36;94350.25;5060186;28;9399;-60
2022/10/20 04:32:28;;;;;;;;;;;;;;;24.03;45.91;94342.25;5081368;28;9792;-60
2022/10/20 04:35:00;;;;;;;;;;;;;;;24.03;46.33;94337.50;5086063;28;7231;-60
2022/10/20 04:37:26;;;;;;;;;;;;;;;24.04;45.88;94344.47;5070439;28;7266;-60
2022/10/20 04:39:56;;;;;;;;;;;;;;;24.05;46.07;94339.78;5080639;28;9798;-60
2022/10/20 04:42:28;;;;;;;;;;;;;;;24.05;46.16;94324.03;5049647;28;9069;-60
2022/10/20 04:44:54;;;;;;;;;;;;;;;24.05;46.04;94321.28;5059054;28;7203;-60
2022/10/20 04:47:21;;;;;;;;;;;;;;;24.06;46.27;94324.75;5067277;28;7267;-60
2022/10/20 04:49:47;;;;;;;;;;;;;;;24.04;46.29;94319.75;5061528;28;7500;-60
2022/10/20 04:52:13;;;;;;;;;;;;;;;24.03;46.20;94326.50;5059922;28;9121;-60
2022/10/20 04:54:39;;;;;;;;;;;;;;;24.05;45.66;94328.78;5060206;28;7312;-60
2022/10/20 04:57:09;;;;;;;;;;;;;;;24.04;46.46;94340.97;5057083;28;7374;-60
2022/10/20 04:59:35;;;;;;;;;;;;;;;24.04;45.98;94324.50;5062485;28;8738;-60
2022/10/20 05:02:01;;;;;;;;;;;;;;;24.02;45.40;94313.25;5066614;28;7128;-60
2022/10/20 05:04:29;;;;;;;;;;;;;;;24.03;45.81;94310.03;5051540;28;9037;-60
2022/10/20 05:06:57;;;;;;;;;;;;;;;24.03;45.91;94312.03;5049305;28;7193;-61
2022/10/20 05:09:27;;;;;;;;;;;;;;;24.04;45.75;94319.00;5050959;28;9351;-60
2022/10/20 05:11:54;;;;;;;;;;;;;;;24.02;45.88;94311.25;5053774;28;8503;-60
2022/10/20 05:14:21;;;;;;;;;;;;;;;24.05;46.37;94317.78;5067390;28;8949;-60
2022/10/20 05:16:49;;;;;;;;;;;;;;;24.04;46.26;94311.50;5068019;28;7228;-60
2022/10/20 05:19:16;;;;;;;;;;;;;;;24.03;45.78;94296.28;5072152;28;7181;-60
2022/10/20 05:21:44;;;;;;;;;;;;;;;24.04;46.25;94295.03;5071594;28;9245;-60
2022/10/20 05:24:14;;;;;;;;;;;;;;;24.04;46.01;94297.78;5071610;28;7447;-60
2022/10/20 05:26:49;;;;;;;;;;;;;;;24.04;46.19;94288.78;5055888;28;7461;-60
2022/10/20 05:29:18;;;;;;;;;;;;;;;24.03;45.95;94282.56;5045814;28;7307;-60
2022/10/20 05:31:44;;;;;;;;;;;;;;;24.03;46.10;94293.53;5060835;28;6861;-59
2022/10/20 05:34:22;;;;;;;;;;;;;;;24.04;46.04;94283.28;5061205;28;7392;-60
2022/10/20 05:36:56;;;;;;;;;;;;;;;24.01;46.08;94265.81;5064021;28;7205;-60
2022/10/20 05:39:29;;;;;;;;;;;;;;;24.02;46.34;94248.06;5055011;28;9132;-61
2022/10/20 05:41:56;;;;;;;;;;;;;;;24.02;46.31;94248.06;5055891;28;7259;-60
2022/10/20 05:44:26;;;;;;;;;;;;;;;24.01;46.18;94248.59;5043754;28;6976;-60
2022/10/20 05:47:03;;;;;;;;;;;;;;;24.00;46.20;94242.34;5055854;28;9107;-61
2022/10/20 05:49:46;;;;;;;;;;;;;;;24.00;45.94;94234.09;5072902;28;9132;-60
2022/10/20 05:52:16;;;;;;;;;;;;;;;23.99;45.84;94241.59;5067791;28;8241;-60
2022/10/20 05:54:44;;;;;;;;;;;;;;;23.95;46.23;94245.84;5089601;28;7043;-60
2022/10/20 05:57:34;;;;;;;;;;;;;;;24.01;45.77;94260.34;5047501;28;6998;-60
2022/10/20 06:00:40;;;;;;;;;;;;;;;24.00;45.82;94264.31;5055589;28;7403;-60
2022/10/20 06:03:10;;;;;;;;;;;;;;;24.01;46.49;94268.56;5010275;28;7025;-60
2022/10/20 06:05:45;;;;;;;;;;;;;;;24.00;46.07;94264.31;5005189;28;6996;-60
2022/10/20 06:08:20;;;;;;;;;;;;;;;23.98;46.32;94262.09;5016746;28;7087;-61
2022/10/20 06:10:45;;;;;;;;;;;;;;;23.99;46.16;94271.81;5029586;28;7295;-60
2022/10/20 06:13:22;;;;;;;;;;;;;;;23.99;46.40;94273.78;5012023;28;7220;-60
2022/10/20 06:15:48;;;;;;;;;;;;;;;23.97;45.82;94263.31;4996522;28;8829;-60
2022/10/20 06:18:14;;;;;;;;;;;;;;;23.98;46.26;94270.31;5030405;28;7156;-60
2022/10/20 06:20:40;;;;;;;;;;;;;;;23.99;45.95;94266.31;5013452;28;7181;-61
2022/10/20 06:23:10;;;;;;;;;;;;;;;23.99;46.29;94262.81;5046246;28;7068;-60
2022/10/20 06:25:37;;;;;;;;;;;;;;;23.97;46.24;94255.06;5027676;28;7277;-60
2022/10/20 06:28:03;;;;;;;;;;;;;;;23.99;46.05;94260.06;5021840;28;7250;-60
2022/10/20 06:30:45;;;;;;;;;;;;;;;23.99;46.31;94271.06;5044746;28;7155;-60
2022/10/20 06:33:13;;;;;;;;;;;;;;;24.01;46.46;94278.81;5005880;28;7315;-60
2022/10/20 06:35:57;;;;;;;;;;;;;;;24.01;45.97;94289.81;5047338;28;9375;-61
2022/10/20 06:38:29;;;;;;;;;;;;;;;23.99;45.82;94295.78;5015448;28;7070;-61
2022/10/20 06:41:00;;;;;;;;;;;;;;;23.97;45.94;94299.03;5049022;28;7282;-61
2022/10/20 06:43:27;;;;;;;;;;;;;;;23.97;46.01;94290.78;5070218;28;9054;-61
2022/10/20 06:46:00;;;;;;;;;;;;;;;23.97;46.35;94292.78;5051431;28;9004;-60
2022/10/20 06:48:37;;;;;;;;;;;;;;;23.98;46.51;94310.78;5064415;28;9422;-60
2022/10/20 06:51:13;;;;;;;;;;;;;;;23.99;46.14;94304.00;5062545;28;7236;-60
2022/10/20 06:53:42;;;;;;;;;;;;;;;23.99;46.58;94304.00;5064497;28;7302;-60
2022/10/20 06:56:15;;;;;;;;;;;;;;;23.97;46.43;94296.28;5055446;28;7378;-60
2022/10/20 06:58:47;;;;;;;;;;;;;;;23.96;46.01;94299.53;5055408;28;8000;-60
2022/10/20 07:01:17;;;;;;;;;;;;;;;23.96;45.70;94297.56;5071596;28;7341;-60
2022/10/20 07:04:10;;;;;;;;;;;;;;;23.99;45.93;94293.78;5072643;28;10362;-60
2022/10/20 07:06:49;;;;;;;;;;;;;;;23.99;46.00;94298.53;5063409;28;7186;-60
2022/10/20 07:09:18;;;;;;;;;;;;;;;23.98;46.14;94308.03;5062435;28;10174;-61
2022/10/20 07:11:59;;;;;;;;;;;;;;;23.96;46.42;94305.78;5087735;28;7146;-61
2022/10/20 07:14:25;;;;;;;;;;;;;;;23.96;46.20;94305.03;5064588;28;7927;-60
2022/10/20 07:16:53;;;;;;;;;;;;;;;23.96;46.32;94310.53;5054649;28;6931;-60
2022/10/20 07:19:19;;;;;;;;;;;;;;;23.97;46.37;94317.50;5067650;28;7201;-60
2022/10/20 07:21:45;;;;;;;;;;;;;;;23.96;46.09;94318.78;5061572;28;7125;-60
2022/10/20 07:24:10;;;;;;;;;;;;;;;23.96;46.28;94325.03;5065071;28;7108;-60
2022/10/20 07:26:47;;;;;;;;;;;;;;;23.95;46.08;94329.00;5062667;28;7260;-60
2022/10/20 07:29:22;;;;;;;;;;;;;;;23.97;45.95;94344.97;5055788;28;7804;-60
2022/10/20 07:31:48;;;;;;;;;;;;;;;23.97;46.17;94353.22;5067770;28;7107;-60
2022/10/20 07:34:18;;;;;;;;;;;;;;;23.95;46.21;94364.72;5060657;28;7177;-61
2022/10/20 07:36:46;;;;;;;;;;;;;;;23.96;45.86;94363.47;5070265;28;7814;-60
2022/10/20 07:39:12;;;;;;;;;;;;;;;23.95;46.08;94363.97;5065191;28;7237;-60
2022/10/20 07:41:46;;;;;;;;;;;;;;;23.96;45.99;94362.72;5062032;28;9173;-60
2022/10/20 07:44:26;;;;;;;;;;;;;;;23.95;46.71;94353.72;5055294;28;6986;-60
2022/10/20 07:46:52;;;;;;;;;;;;;;;23.95;46.33;94355.72;5056442;28;7351;-60
2022/10/20 07:49:29;;;;;;;;;;;;;;;23.96;46.09;94357.22;5053725;28;7255;-60
2022/10/20 07:51:56;;;;;;;;;;;;;;;23.95;45.79;94364.72;5060996;28;7234;-60
2022/10/20 07:54:49;;;;;;;;;;;;;;;23.95;46.04;94363.97;5071761;28;7292;-60
2022/10/20 07:57:23;;;;;;;;;;;;;;;23.94;46.32;94368.72;5023258;28;7203;-60
2022/10/20 08:00:28;;;;;;;;;;;;;;;23.95;46.48;94366.72;5006795;28;7313;-60
2022/10/20 08:03:12;;;;;;;;;;;;;;;23.95;46.32;94370.22;4993390;28;7306;-60
2022/10/20 08:05:38;;;;;;;;;;;;;;;23.95;46.56;94372.97;5009820;28;9031;-61
2022/10/20 08:08:04;;;;;;;;;;;;;;;23.94;46.48;94384.47;5009338;28;7566;-61
2022/10/20 08:10:51;;;;;;;;;;;;;;;23.93;46.31;94391.19;4993297;28;7614;-61
2022/10/20 08:13:25;;;;;;;;;;;;;;;23.92;46.24;94381.47;5006636;28;7377;-60
2022/10/20 08:15:51;;;;;;;;;;;;;;;23.94;45.98;94387.19;5003663;28;7237;-61
2022/10/20 08:18:17;;;;;;;;;;;;;;;23.94;45.93;94398.19;4993302;28;7296;-60
2022/10/20 08:20:44;;;;;;;;;;;;;;;23.93;46.23;94399.44;5009006;28;7301;-60
2022/10/20 08:23:12;;;;;;;;;;;;;;;23.93;45.76;94413.16;5008973;28;9118;-60
2022/10/20 08:26:07;;;;;;;;;;;;;;;23.93;46.06;94415.91;4984625;28;8988;-60
2022/10/20 08:28:34;;;;;;;;;;;;;;;23.92;45.75;94422.66;4989485;28;7276;-60
2022/10/20 08:31:04;;;;;;;;;;;;;;;23.92;45.90;94431.63;4985163;28;6965;-61
2022/10/20 08:33:34;;;;;;;;;;;;;;;23.94;46.39;94422.91;4997153;28;9363;-60
2022/10/20 08:36:06;;;;;;;;;;;;;;;23.92;46.17;94433.66;5012568;28;7236;-60
2022/10/20 08:38:33;;;;;;;;;;;;;;;23.93;46.25;94440.63;5027676;28;8186;-60
2022/10/20 08:41:02;;;;;;;;;;;;;;;23.93;46.01;94441.38;5011027;28;7069;-60
2022/10/20 08:43:34;;;;;;;;;;;;;;;23.94;46.21;94450.38;5011750;28;7852;-60
2022/10/20 08:46:05;;;;;;;;;;;;;;;23.93;46.05;94459.88;5010135;28;7310;-60
2022/10/20 08:48:46;;;;;;;;;;;;;;;23.92;46.09;94456.34;5023148;28;7060;-60
2022/10/20 08:51:37;;;;;;;;;;;;;;;23.93;46.39;94455.13;5030391;28;7460;-61
2022/10/20 08:54:16;;;;;;;;;;;;;;;23.92;46.56;94442.63;5029584;28;7929;-60
2022/10/20 08:56:45;;;;;;;;;;;;;;;23.93;46.05;94443.38;5025068;28;7276;-60
2022/10/20 08:59:35;;;;;;;;;;;;;;;23.94;45.72;94442.91;5015717;28;7318;-60
2022/10/20 09:02:06;;;;;;;;;;;;;;;23.94;45.89;94428.41;5008390;28;9086;-60
2022/10/20 09:04:46;;;;;;;;;;;;;;;23.94;46.36;94439.41;5041681;28;7244;-60
2022/10/20 09:07:37;;;;;;;;;;;;;;;23.93;46.42;94446.88;5085023;28;7009;-60
2022/10/20 09:10:13;;;;;;;;;;;;;;;23.94;46.01;94442.91;5067487;28;7215;-60
2022/10/20 09:12:43;;;;;;;;;;;;;;;23.95;45.87;94449.13;5065319;28;6915;-60
2022/10/20 09:15:15;;;;;;;;;;;;;;;23.94;46.22;94453.13;5063967;28;7087;-61
2022/10/20 09:17:48;;;;;;;;;;;;;;;23.92;45.95;94445.38;5072886;28;7399;-60
2022/10/20 09:20:32;;;;;;;;;;;;;;;23.92;46.15;94441.91;5053637;28;7631;-60
2022/10/20 09:23:13;;;;;;;;;;;;;;;23.91;45.95;94440.38;5068324;28;9303;-61
2022/10/20 09:25:44;;;;;;;;;;;;;;;23.90;46.34;94438.91;5073225;28;7245;-60
2022/10/20 09:28:25;;;;;;;;;;;;;;;23.90;46.10;94438.91;5084390;28;7226;-60
2022/10/20 09:30:54;;;;;;;;;;;;;;;23.92;46.51;94444.66;5047587;28;7378;-60
2022/10/20 09:33:33;;;;;;;;;;;;;;;23.94;46.32;94450.38;5080880;28;7130;-60
2022/10/20 09:36:20;;;;;;;;;;;;;;;23.96;46.00;94456.88;5066228;28;7284;-60
2022/10/20 09:38:54;;;;;;;;;;;;;;;23.99;46.74;94458.63;5084097;28;9150;-60
2022/10/20 09:41:38;;;;;;;;;;;;;;;24.01;45.99;94455.41;5068434;28;7162;-61
2022/10/20 09:44:24;;;;;;;;;;;;;;;24.01;46.43;94444.41;5053352;28;7269;-60
2022/10/20 09:46:57;;;;;;;;;;;;;;;24.03;46.00;94447.41;5056747;28;7438;-61
2022/10/20 09:49:31;;;;;;;;;;;;;;;24.01;45.75;94455.41;5068653;28;7312;-60
2022/10/20 09:52:02;;;;;;;;;;;;;;;23.99;46.53;94449.63;5069009;28;7042;-60
2022/10/20 09:54:30;;;;;;;;;;;;;;;23.99;46.08;94439.38;5069399;28;6976;-60
2022/10/20 09:57:05;;;;;;;;;;;;;;;24.01;46.16;94438.91;5072615;28;7227;-60
2022/10/20 09:59:37;;;;;;;;;;;;;;;24.02;46.74;94442.38;5052443;28;7264;-60
2022/10/20 10:02:22;;;;;;;;;;;;;;;24.02;46.73;94440.41;5072418;28;7324;-60
2022/10/20 10:05:18;;;;;;;;;;;;;;;24.01;46.09;94444.41;5071637;28;7281;-60
2022/10/20 10:07:56;;;;;;;;;;;;;;;24.02;46.48;94445.88;5053040;28;7289;-60
2022/10/20 10:10:28;;;;;;;;;;;;;;;24.02;46.26;94451.38;5042701;28;7573;-61
2022/10/20 10:13:28;;;;;;;;;;;;;;;24.04;46.60;94442.63;5064700;28;7241;-60
2022/10/20 10:16:07;;;;;;;;;;;;;;;24.02;46.59;94447.88;4976987;28;7235;-60
2022/10/20 10:18:35;;;;;;;;;;;;;;;24.00;46.52;94442.88;4989762;28;9221;-60
2022/10/20 10:21:05;;;;;;;;;;;;;;;23.99;46.53;94446.88;4981416;28;8912;-60
2022/10/20 10:23:59;;;;;;;;;;;;;;;23.97;46.43;94441.13;5009115;28;7955;-61
2022/10/20 10:26:53;;;;;;;;;;;;;;;23.98;46.56;94435.16;4990818;28;8327;-60
2022/10/20 10:29:30;;;;;;;;;;;;;;;23.98;45.90;94434.41;4979807;28;7225;-61
2022/10/20 10:32:14;;;;;;;;;;;;;;;23.97;46.56;94433.66;4966359;28;6867;-60
2022/10/20 10:35:18;;;;;;;;;;;;;;;24.00;46.78;94423.66;4981565;28;9826;-60
2022/10/20 10:37:45;;;;;;;;;;;;;;;24.00;46.54;94412.66;4990124;28;7302;-60
2022/10/20 10:41:19;;;;;;;;;;;;;;;24.00;46.67;94409.91;4986342;28;9606;-60
2022/10/20 10:44:12;;;;;;;;;;;;;;;24.00;46.38;94396.19;4974331;28;9760;-60
2022/10/20 10:46:56;;;;;;;;;;;;;;;23.99;46.33;94389.19;4975754;28;6995;-61
2022/10/20 10:49:51;;;;;;;;;;;;;;;23.98;46.12;94384.94;4994777;28;9166;-61
2022/10/20 10:52:50;;;;;;;;;;;;;;;23.98;45.93;94379.47;5005863;28;7480;-60
2022/10/20 10:56:07;;;;;;;;;;;;;;;23.98;46.60;94371.22;5055404;28;8684;-61
2022/10/20 10:58:42;;;;;;;;;;;;;;;23.97;46.49;94370.47;4980164;28;7014;-60
2022/10/20 11:01:10;;;;;;;;;;;;;;;23.95;46.58;94359.22;4998540;28;7278;-60
2022/10/20 11:04:11;;;;;;;;;;;;;;;23.94;46.54;94346.75;4994637;28;7222;-60
2022/10/20 11:06:41;;;;;;;;;;;;;;;23.96;46.63;94346.25;4958714;28;7273;-60
2022/10/20 11:09:24;;;;;;;;;;;;;;;23.95;46.62;94342.00;4947563;28;7317;-60
2022/10/20 11:12:25;;;;;;;;;;;;;;;23.95;46.29;94340.00;4955636;28;7220;-60
2022/10/20 11:15:09;;;;;;;;;;;;;;;23.95;46.63;94337.25;4923332;28;7219;-60
2022/10/20 11:17:56;;;;;;;;;;;;;;;23.95;46.40;94339.25;4914960;29;9381;-60
2022/10/20 11:20:32;;;;;;;;;;;;;;;23.95;46.18;94339.25;4917685;29;9143;-60
2022/10/20 11:23:20;;;;;;;;;;;;;;;23.95;46.70;94337.25;4917231;29;7245;-60
2022/10/20 11:26:14;;;;;;;;;;;;;;;23.94;47.01;94329.50;4932819;29;7250;-60
2022/10/20 11:28:50;;;;;;;;;;;;;;;23.94;46.69;94332.25;4924396;29;6991;-60
2022/10/20 11:31:40;;;;;;;;;;;;;;;23.93;46.99;94328.00;4917689;29;7494;-61
2022/10/20 11:34:57;;;;;;;;;;;;;;;23.95;46.75;94336.50;4965905;28;7228;-60
2022/10/20 11:37:34;;;;;;;;;;;;;;;23.96;46.59;94340.75;4951770;28;7256;-60
2022/10/20 11:40:23;;;;;;;;;;;;;;;23.97;46.66;94347.72;4935096;28;7267;-60
2022/10/20 11:43:20;;;;;;;;;;;;;;;23.98;46.22;94327.25;4965211;28;7211;-60
2022/10/20 11:45:54;;;;;;;;;;;;;;;23.97;46.49;94323.75;5010352;28;7575;-60
2022/10/20 11:48:29;;;;;;;;;;;;;;;23.99;46.92;94323.25;4993758;28;9223;-60
2022/10/20 11:51:37;;;;;;;;;;;;;;;23.98;46.37;94322.53;5010621;28;9393;-60
2022/10/20 11:54:33;;;;;;;;;;;;;;;23.99;46.08;94332.25;4944120;28;7353;-60
2022/10/20 11:57:23;;;;;;;;;;;;;;;24.01;46.63;94328.25;4917443;29;8444;-60
2022/10/20 12:00:26;;;;;;;;;;;;;;;24.01;46.72;94323.53;4949617;28;9365;-60
2022/10/20 12:03:25;;;;;;;;;;;;;;;24.00;46.34;94324.75;4945486;28;8683;-60
2022/10/20 12:05:51;;;;;;;;;;;;;;;24.01;46.44;94315.28;4930056;28;7618;-60
2022/10/20 12:08:42;;;;;;;;;;;;;;;23.99;46.20;94302.03;4934340;29;7307;-61
2022/10/20 12:11:40;;;;;;;;;;;;;;;23.98;46.33;94281.31;4928414;28;7342;-60
2022/10/20 12:14:15;;;;;;;;;;;;;;;23.98;46.40;94278.56;4949742;29;7372;-60
2022/10/20 12:16:53;;;;;;;;;;;;;;;24.01;46.88;94259.56;4965886;28;7225;-60
2022/10/20 12:19:19;;;;;;;;;;;;;;;24.01;46.50;94235.59;4951099;29;7368;-60
2022/10/20 12:22:05;;;;;;;;;;;;;;;24.00;46.13;94209.38;4952085;28;7028;-60
2022/10/20 12:25:02;;;;;;;;;;;;;;;24.01;46.08;94194.41;4939181;28;7272;-59
2022/10/20 12:27:31;;;;;;;;;;;;;;;23.99;46.44;94166.66;4936139;28;7302;-60
2022/10/20 12:30:02;;;;;;;;;;;;;;;24.04;46.13;94137.66;4982586;28;7989;-60
2022/10/20 12:32:28;;;;;;;;;;;;;;;24.03;46.71;94125.97;5059338;28;9333;-60
2022/10/20 12:34:59;;;;;;;;;;;;;;;24.03;46.57;94142.44;5063516;28;6993;-60
2022/10/20 12:37:41;;;;;;;;;;;;;;;24.03;46.29;94172.66;5058005;28;6999;-60
2022/10/20 12:40:08;;;;;;;;;;;;;;;23.98;46.68;94187.16;5073758;28;7091;-60
2022/10/20 12:42:45;;;;;;;;;;;;;;;23.92;46.63;94192.66;5055703;28;7012;-60
2022/10/20 12:45:17;;;;;;;;;;;;;;;23.90;46.67;94194.44;5066604;28;7294;-60
2022/10/20 12:47:59;;;;;;;;;;;;;;;23.90;46.91;94192.41;5054912;28;9050;-60
2022/10/20 12:51:11;;;;;;;;;;;;;;;23.90;46.95;94194.44;5065142;28;8327;-60
2022/10/20 12:53:53;;;;;;;;;;;;;;;23.90;46.78;94197.91;5035712;28;7001;-60
2022/10/20 12:56:58;;;;;;;;;;;;;;;23.92;47.03;94183.69;5043812;28;7290;-60
2022/10/20 12:59:48;;;;;;;;;;;;;;;23.95;46.38;94193.66;5009959;28;8284;-60
2022/10/20 13:02:50;;;;;;;;;;;;;;;23.94;47.16;94192.16;5007679;28;7359;-60
2022/10/20 13:05:17;;;;;;;;;;;;;;;23.92;46.71;94186.44;5006427;28;7310;-60
2022/10/20 13:07:46;;;;;;;;;;;;;;;23.92;46.61;94192.66;5002764;28;8461;-60
2022/10/20 13:10:38;;;;;;;;;;;;;;;23.89;46.87;94187.44;5012070;28;7146;-60
2022/10/20 13:13:12;;;;;;;;;;;;;;;23.87;47.19;94182.44;5012911;28;7090;-60
2022/10/20 13:15:47;;;;;;;;;;;;;;;23.88;46.87;94166.72;5012968;28;9290;-60
2022/10/20 13:18:22;;;;;;;;;;;;;;;23.85;47.00;94170.47;5004068;28;7479;-60
2022/10/20 13:20:56;;;;;;;;;;;;;;;23.89;47.03;94173.69;5012425;28;8844;-60
2022/10/20 13:23:28;;;;;;;;;;;;;;;23.93;46.69;94179.66;4993167;28;9010;-60
2022/10/20 13:25:58;;;;;;;;;;;;;;;23.94;46.76;94175.69;5008115;28;7241;-60
2022/10/20 13:28:36;;;;;;;;;;;;;;;23.95;46.48;94166.94;5012463;28;7503;-60
2022/10/20 13:31:51;;;;;;;;;;;;;;;23.94;47.12;94165.44;4972800;28;9519;-60
2022/10/20 13:34:43;;;;;;;;;;;;;;;23.94;46.51;94178.44;5043087;28;7270;-60
2022/10/20 13:37:17;;;;;;;;;;;;;;;23.91;46.78;94180.19;5084422;28;6990;-60
2022/10/20 13:40:19;;;;;;;;;;;;;;;23.95;46.50;94182.66;5053258;28;7109;-60
2022/10/20 13:43:07;;;;;;;;;;;;;;;23.90;46.60;94194.44;5037467;28;7108;-60
2022/10/20 13:46:10;;;;;;;;;;;;;;;23.90;46.98;94197.91;5064420;28;7039;-60